Time;durP1;ratioP1;P1;durP2;ratioP2;P2;SDS_P1;SDS_P2;PMS_P1;PMS_P2;Temp;Humidity;BMP_temperature;BMP_pressure;BME280_temperature;BME280_humidity;BME280_pressure;Samples;Min_cycle;Max_cycle;Signal;HPM_P1;HPM_P2
2022/01/01 00:00:54;;;;;;;35.00;25.83;;;12.60;99.90;;;;;;4975762;28;20692;-78
2022/01/01 00:03:20;;;;;;;28.90;23.77;;;12.60;99.90;;;;;;4995755;28;20638;-77
2022/01/01 00:05:45;;;;;;;32.60;23.87;;;12.50;99.90;;;;;;4996415;28;20191;-79
2022/01/01 00:08:16;;;;;;;27.97;19.43;;;12.50;99.90;;;;;;4993849;28;20202;-79
2022/01/01 00:10:44;;;;;;;26.70;18.63;;;12.50;99.90;;;;;;4994436;28;20277;-78
2022/01/01 00:13:11;;;;;;;27.43;19.00;;;12.50;99.90;;;;;;4995806;28;20627;-78
2022/01/01 00:15:37;;;;;;;24.53;17.50;;;12.50;99.90;;;;;;4981670;28;20660;-78
2022/01/01 00:18:03;;;;;;;19.47;14.13;;;12.50;99.90;;;;;;4977140;28;20653;-77
2022/01/01 00:20:28;;;;;;;24.93;17.43;;;12.50;99.90;;;;;;4974629;28;20245;-77
2022/01/01 00:22:54;;;;;;;23.90;15.10;;;12.60;99.90;;;;;;4994028;28;20585;-78
2022/01/01 00:25:19;;;;;;;23.30;14.93;;;12.60;99.90;;;;;;4993399;28;20672;-77
2022/01/01 00:27:45;;;;;;;20.57;14.00;;;12.50;99.90;;;;;;4987891;28;20216;-77
2022/01/01 00:30:11;;;;;;;17.67;11.43;;;12.60;99.90;;;;;;4991156;28;20651;-78
2022/01/01 00:32:38;;;;;;;20.10;12.50;;;12.60;99.90;;;;;;4976076;28;20566;-78
2022/01/01 00:35:07;;;;;;;16.60;11.37;;;12.60;99.90;;;;;;4977965;28;20625;-78
2022/01/01 00:37:33;;;;;;;19.80;11.30;;;12.60;99.90;;;;;;4991819;28;20669;-77
2022/01/01 00:39:58;;;;;;;21.30;11.77;;;12.60;99.90;;;;;;4990421;28;20735;-78
2022/01/01 00:42:27;;;;;;;15.00;12.27;;;12.50;99.90;;;;;;4993272;28;20261;-77
2022/01/01 00:44:53;;;;;;;18.27;11.23;;;12.60;99.90;;;;;;4978852;28;20221;-77
2022/01/01 00:47:20;;;;;;;16.03;11.10;;;12.50;99.90;;;;;;4973110;28;20654;-78
2022/01/01 00:49:53;;;;;;;20.07;10.33;;;12.60;99.90;;;;;;4993785;28;20221;-78
2022/01/01 00:52:19;;;;;;;18.20;10.70;;;12.60;99.90;;;;;;4978882;28;20614;-77
2022/01/01 00:54:47;;;;;;;20.97;10.80;;;12.50;99.90;;;;;;4978608;28;20625;-77
2022/01/01 00:57:13;;;;;;;15.17;9.73;;;12.50;99.90;;;;;;4994332;28;20221;-77
2022/01/01 00:59:38;;;;;;;18.73;9.73;;;12.60;99.90;;;;;;4992263;28;20640;-77
2022/01/01 01:02:04;;;;;;;21.43;10.07;;;12.50;99.90;;;;;;4991393;28;20209;-77
2022/01/01 01:04:34;;;;;;;19.43;9.80;;;12.50;99.90;;;;;;4992129;28;20234;-78
2022/01/01 01:07:00;;;;;;;19.23;9.50;;;12.50;99.90;;;;;;4971872;28;20686;-77
2022/01/01 01:09:31;;;;;;;17.27;9.37;;;12.50;99.90;;;;;;4993569;28;20634;-77
2022/01/01 01:11:57;;;;;;;15.60;9.10;;;12.50;99.90;;;;;;4995576;28;20196;-76
2022/01/01 01:14:24;;;;;;;17.00;9.57;;;12.40;99.90;;;;;;4976483;28;20716;-78
2022/01/01 01:16:52;;;;;;;16.37;9.77;;;12.50;99.90;;;;;;4995403;28;20234;-76
2022/01/01 01:19:17;;;;;;;16.20;9.37;;;12.50;99.90;;;;;;4974892;28;20637;-78
2022/01/01 01:21:44;;;;;;;16.60;9.80;;;12.50;99.90;;;;;;4995541;28;20988;-78
2022/01/01 01:24:14;;;;;;;15.13;9.50;;;12.50;99.90;;;;;;4990643;28;20197;-77
2022/01/01 01:26:45;;;;;;;15.10;9.00;;;12.50;99.90;;;;;;4974661;28;20646;-76
2022/01/01 01:29:14;;;;;;;18.00;10.23;;;12.50;99.90;;;;;;4992806;28;21024;-77
2022/01/01 01:31:39;;;;;;;19.37;10.93;;;12.50;99.90;;;;;;4990382;28;20709;-77
2022/01/01 01:34:07;;;;;;;17.63;10.00;;;12.40;99.90;;;;;;4994165;28;20739;-76
2022/01/01 01:36:33;;;;;;;16.73;9.87;;;12.40;99.90;;;;;;4979458;28;20301;-77
2022/01/01 01:38:58;;;;;;;15.87;10.30;;;12.40;99.90;;;;;;4993216;28;20692;-77
2022/01/01 01:41:30;;;;;;;14.43;9.30;;;12.40;99.90;;;;;;4976994;28;20206;-77
2022/01/01 01:43:57;;;;;;;16.20;10.03;;;12.40;99.90;;;;;;4992345;28;20181;-77
2022/01/01 01:46:28;;;;;;;18.97;10.13;;;12.40;99.90;;;;;;4977634;28;20672;-77
2022/01/01 01:48:55;;;;;;;18.97;10.67;;;12.40;99.90;;;;;;4975876;28;20637;-78
2022/01/01 01:51:25;;;;;;;16.57;9.67;;;12.50;99.90;;;;;;4974483;28;20625;-77
2022/01/01 01:53:50;;;;;;;12.97;9.23;;;12.50;99.90;;;;;;4990569;28;20656;-77
2022/01/01 01:56:18;;;;;;;17.90;9.60;;;12.50;99.90;;;;;;4975010;28;20660;-77
2022/01/01 01:58:46;;;;;;;16.07;8.83;;;12.50;99.90;;;;;;4992045;28;20279;-77
2022/01/01 02:03:40;;;;;;;15.67;9.83;;;12.60;99.90;;;;;;4987348;28;20624;-78
2022/01/01 02:06:09;;;;;;;16.33;10.00;;;12.50;99.90;;;;;;4977244;28;20648;-76
2022/01/01 02:08:37;;;;;;;16.10;9.13;;;12.50;99.90;;;;;;4996157;28;20190;-77
2022/01/01 02:11:03;;;;;;;17.77;9.50;;;12.50;99.90;;;;;;4991024;28;20633;-77
2022/01/01 02:18:49;;;;;;;18.90;9.30;;;12.50;99.90;;;;;;4995387;28;20738;-77
2022/01/01 02:21:15;;;;;;;15.33;9.37;;;12.50;99.90;;;;;;4978803;28;20633;-77
2022/01/01 02:23:46;;;;;;;18.33;9.40;;;12.50;99.90;;;;;;4976232;28;20698;-78
2022/01/01 02:26:15;;;;;;;17.60;9.70;;;12.50;99.90;;;;;;4996562;28;20675;-78
2022/01/01 02:28:50;;;;;;;14.00;9.07;;;12.50;99.90;;;;;;4994071;28;20621;-78
2022/01/01 02:31:16;;;;;;;17.00;10.40;;;12.40;99.90;;;;;;5003210;28;20768;-78
2022/01/01 02:33:43;;;;;;;18.20;9.80;;;12.40;99.90;;;;;;4982936;28;20672;-77
2022/01/01 02:36:12;;;;;;;15.17;10.23;;;12.40;99.90;;;;;;5000176;28;20221;-78
2022/01/01 02:38:37;;;;;;;17.33;11.07;;;12.50;99.90;;;;;;4976547;28;20697;-78
2022/01/01 02:41:03;;;;;;;19.13;10.30;;;12.50;99.90;;;;;;4980190;28;20671;-78
2022/01/01 02:43:31;;;;;;;14.30;9.67;;;12.40;99.90;;;;;;4996412;28;20584;-78
2022/01/01 02:45:56;;;;;;;20.43;11.53;;;12.50;99.90;;;;;;4995530;28;20624;-77
2022/01/01 02:48:26;;;;;;;15.50;9.60;;;12.40;99.90;;;;;;4980735;28;21353;-77
2022/01/01 02:50:52;;;;;;;18.40;10.57;;;12.50;99.90;;;;;;5000056;28;20186;-79
2022/01/01 02:53:18;;;;;;;15.90;10.37;;;12.50;99.90;;;;;;4981768;28;20609;-78
2022/01/01 02:55:51;;;;;;;18.53;10.50;;;12.50;99.90;;;;;;4984498;28;20880;-78
2022/01/01 02:58:17;;;;;;;20.47;10.60;;;12.30;99.90;;;;;;4995540;28;20272;-77
2022/01/01 03:00:42;;;;;;;16.47;10.30;;;12.50;99.90;;;;;;4994501;28;20629;-77
2022/01/01 03:03:08;;;;;;;19.67;10.83;;;12.50;99.90;;;;;;4981309;28;20217;-78
2022/01/01 03:05:35;;;;;;;17.00;10.73;;;12.60;99.90;;;;;;4982976;28;20201;-79
2022/01/01 03:08:04;;;;;;;15.83;10.73;;;12.60;99.90;;;;;;4999096;28;20213;-78
2022/01/01 03:10:32;;;;;;;18.00;11.10;;;12.60;99.90;;;;;;4997842;28;20639;-78
2022/01/01 03:12:58;;;;;;;22.47;11.40;;;12.50;99.90;;;;;;4980151;28;20762;-77
2022/01/01 03:15:29;;;;;;;14.63;11.23;;;12.50;99.90;;;;;;4982745;28;20617;-78
2022/01/01 03:18:00;;;;;;;23.90;14.57;;;12.50;99.90;;;;;;4981149;28;20225;-77
2022/01/01 03:20:47;;;;;;;18.73;11.70;;;12.50;99.90;;;;;;4988890;28;20637;-77
2022/01/01 03:23:22;;;;;;;22.80;11.20;;;12.40;99.90;;;;;;4963023;28;20622;-78
2022/01/01 03:25:55;;;;;;;23.93;13.37;;;12.40;99.90;;;;;;4981947;28;20779;-77
2022/01/01 03:28:35;;;;;;;21.33;12.67;;;12.40;99.90;;;;;;4974071;28;21230;-78
2022/01/01 03:31:02;;;;;;;22.17;12.73;;;12.50;99.90;;;;;;4965425;28;20629;-78
2022/01/01 03:33:44;;;;;;;26.37;13.77;;;12.40;99.90;;;;;;4975374;28;20639;-77
2022/01/01 03:36:19;;;;;;;19.03;11.90;;;12.40;99.90;;;;;;4982926;28;20656;-78
2022/01/01 03:38:53;;;;;;;25.20;13.17;;;12.40;99.90;;;;;;4971542;28;20684;-78
2022/01/01 03:41:22;;;;;;;24.83;14.17;;;12.50;99.90;;;;;;4987557;28;20691;-78
2022/01/01 03:43:55;;;;;;;20.83;12.40;;;12.50;99.90;;;;;;4996056;28;21159;-77
2022/01/01 03:47:09;;;;;;;23.93;13.20;;;12.50;99.90;;;;;;4995741;28;21189;-77
2022/01/01 03:49:36;;;;;;;19.87;12.10;;;12.50;99.90;;;;;;4983400;28;20651;-77
2022/01/01 03:52:04;;;;;;;20.70;13.13;;;12.60;99.90;;;;;;4993540;28;20665;-77
2022/01/01 03:54:39;;;;;;;20.97;13.00;;;12.50;99.90;;;;;;4947182;28;20625;-78
2022/01/01 03:57:29;;;;;;;20.23;12.20;;;12.50;99.90;;;;;;4977615;28;20663;-78
2022/01/01 04:00:07;;;;;;;20.03;11.80;;;12.50;99.90;;;;;;4987949;28;20625;-78
2022/01/01 04:02:51;;;;;;;16.10;12.00;;;12.50;99.90;;;;;;4981963;28;20689;-77
2022/01/01 04:05:22;;;;;;;24.10;13.27;;;12.50;99.90;;;;;;4960956;28;20614;-78
2022/01/01 04:07:48;;;;;;;21.37;12.70;;;12.50;99.90;;;;;;4994147;28;20761;-78
2022/01/01 04:10:30;;;;;;;20.70;12.60;;;12.50;99.90;;;;;;4977714;28;20724;-77
2022/01/01 04:13:26;;;;;;;23.93;12.97;;;12.50;99.90;;;;;;4994486;28;20739;-78
2022/01/01 04:15:53;;;;;;;30.20;16.37;;;12.50;99.90;;;;;;4995523;28;20613;-77
2022/01/01 04:18:39;;;;;;;22.50;14.20;;;12.50;99.90;;;;;;4993583;28;20668;-77
2022/01/01 04:21:08;;;;;;;23.60;13.73;;;12.60;99.90;;;;;;4960605;28;20618;-77
2022/01/01 04:23:38;;;;;;;19.87;12.53;;;12.50;99.90;;;;;;4995449;28;20986;-77
2022/01/01 04:26:19;;;;;;;26.80;13.67;;;12.50;99.90;;;;;;4978796;28;20689;-78
2022/01/01 04:28:50;;;;;;;25.40;14.13;;;12.50;99.90;;;;;;4961563;28;20633;-77
2022/01/01 04:31:29;;;;;;;24.00;14.90;;;12.50;99.90;;;;;;4995312;28;21212;-78
2022/01/01 04:34:00;;;;;;;21.67;13.57;;;12.60;99.90;;;;;;4995709;28;20978;-78
2022/01/01 04:36:32;;;;;;;23.30;14.70;;;12.60;99.90;;;;;;4997308;28;21219;-78
2022/01/01 04:39:17;;;;;;;22.70;14.23;;;12.50;99.90;;;;;;4993438;28;20744;-78
2022/01/01 04:41:54;;;;;;;23.63;14.50;;;12.50;99.90;;;;;;4990662;28;20954;-78
2022/01/01 04:44:33;;;;;;;21.60;14.87;;;12.50;99.90;;;;;;4983910;28;20613;-77
2022/01/01 04:49:38;;;;;;;24.03;15.07;;;12.50;99.90;;;;;;5496544;23;20675;-78
2022/01/01 04:52:06;;;;;;;21.20;13.93;;;12.50;99.90;;;;;;4991728;28;20612;-78
2022/01/01 04:54:33;;;;;;;21.77;14.43;;;12.60;99.90;;;;;;5009104;28;20190;-78
2022/01/01 04:56:59;;;;;;;32.30;17.83;;;12.50;99.90;;;;;;5009337;28;20652;-78
2022/01/01 04:59:25;;;;;;;23.83;14.77;;;12.70;99.90;;;;;;4997102;28;20639;-78
2022/01/01 05:01:52;;;;;;;31.83;15.60;;;12.50;99.90;;;;;;4996291;28;20272;-78
2022/01/01 05:04:20;;;;;;;30.47;16.50;;;12.50;99.90;;;;;;5013433;28;20225;-78
2022/01/01 05:06:49;;;;;;;26.50;15.80;;;12.60;99.90;;;;;;4992609;28;21094;-77
2022/01/01 05:09:18;;;;;;;23.13;16.07;;;12.60;99.90;;;;;;4993148;28;20637;-77
2022/01/01 05:11:47;;;;;;;23.53;14.73;;;12.60;99.90;;;;;;4994215;28;20613;-78
2022/01/01 05:14:13;;;;;;;23.90;15.63;;;12.80;99.90;;;;;;4998478;28;20597;-78
2022/01/01 05:16:51;;;;;;;27.27;16.10;;;12.70;99.90;;;;;;5012373;28;20632;-78
2022/01/01 05:19:19;;;;;;;24.03;16.10;;;12.40;99.90;;;;;;4998612;28;20665;-78
2022/01/01 05:21:46;;;;;;;30.03;17.20;;;12.60;99.90;;;;;;4983308;28;21170;-79
2022/01/01 05:24:18;;;;;;;29.30;15.97;;;12.60;99.90;;;;;;4988006;28;20604;-79
2022/01/01 05:26:45;;;;;;;29.00;17.30;;;12.70;99.90;;;;;;5000956;28;20671;-78
2022/01/01 05:29:10;;;;;;;21.40;15.40;;;12.60;99.90;;;;;;5000114;28;20648;-79
2022/01/01 05:31:36;;;;;;;26.10;17.57;;;12.60;99.90;;;;;;5009691;28;21191;-78
2022/01/01 05:34:03;;;;;;;27.67;15.87;;;12.60;99.90;;;;;;4996080;28;20253;-79
2022/01/01 05:36:29;;;;;;;26.13;16.33;;;12.70;99.90;;;;;;5003979;28;20676;-79
2022/01/01 05:38:55;;;;;;;24.60;16.53;;;12.80;99.90;;;;;;4997670;28;20652;-79
2022/01/01 05:41:21;;;;;;;30.90;16.67;;;12.50;99.90;;;;;;5011193;28;20636;-79
2022/01/01 05:43:47;;;;;;;27.13;17.03;;;12.40;99.90;;;;;;4995183;28;20615;-78
2022/01/01 05:46:16;;;;;;;29.53;18.60;;;12.60;99.90;;;;;;4994006;28;20716;-78
2022/01/01 05:48:42;;;;;;;34.13;16.40;;;12.60;99.90;;;;;;4996672;28;20631;-78
2022/01/01 05:51:08;;;;;;;26.47;17.27;;;12.40;99.90;;;;;;4994689;28;20649;-79
2022/01/01 05:53:36;;;;;;;28.90;16.47;;;12.50;99.90;;;;;;5007989;28;20632;-77
2022/01/01 05:56:02;;;;;;;33.00;18.10;;;12.50;99.90;;;;;;5010018;28;20672;-78
2022/01/01 05:58:31;;;;;;;27.33;15.60;;;12.50;99.90;;;;;;4991429;28;20695;-78
2022/01/01 06:01:00;;;;;;;28.40;16.50;;;12.50;99.90;;;;;;5012638;28;20213;-79
2022/01/01 06:03:26;;;;;;;37.23;16.87;;;12.50;99.90;;;;;;4995105;28;20704;-78
2022/01/01 06:05:54;;;;;;;31.27;18.43;;;12.50;99.90;;;;;;5011376;28;20670;-79
2022/01/01 06:08:19;;;;;;;33.10;16.97;;;12.50;99.90;;;;;;4998069;28;20189;-78
2022/01/01 06:10:45;;;;;;;24.77;16.50;;;12.50;99.90;;;;;;5008358;28;20675;-76
2022/01/01 06:13:11;;;;;;;26.67;17.30;;;12.50;99.90;;;;;;4989789;28;20244;-80
2022/01/01 06:15:37;;;;;;;27.97;17.10;;;12.50;99.90;;;;;;5011040;28;21055;-76
2022/01/01 06:18:05;;;;;;;27.77;15.40;;;12.60;99.90;;;;;;5010729;28;20232;-75
2022/01/01 06:20:31;;;;;;;25.37;15.43;;;12.30;99.90;;;;;;4992019;28;20223;-76
2022/01/01 06:22:57;;;;;;;24.10;14.90;;;12.40;99.90;;;;;;4994070;28;20711;-77
2022/01/01 06:25:22;;;;;;;26.70;16.13;;;12.30;99.90;;;;;;4995637;28;20232;-76
2022/01/01 06:27:48;;;;;;;25.30;14.73;;;12.50;99.90;;;;;;5007669;28;20209;-76
2022/01/01 06:30:14;;;;;;;27.87;15.03;;;12.30;99.90;;;;;;5012936;28;20768;-77
2022/01/01 06:32:42;;;;;;;26.00;14.90;;;12.50;99.90;;;;;;4997026;28;20185;-76
2022/01/01 06:35:08;;;;;;;26.07;15.90;;;12.70;99.90;;;;;;4993916;28;20201;-75
2022/01/01 06:37:34;;;;;;;27.97;15.10;;;12.50;99.90;;;;;;4986912;28;20664;-75
2022/01/01 06:40:03;;;;;;;28.23;15.30;;;12.40;99.90;;;;;;4992072;28;20261;-77
2022/01/01 06:42:33;;;;;;;25.00;14.87;;;12.50;99.90;;;;;;5008896;28;20189;-78
2022/01/01 06:44:59;;;;;;;27.20;15.50;;;12.60;99.90;;;;;;4989917;28;21222;-78
2022/01/01 06:47:25;;;;;;;28.50;14.50;;;12.70;99.90;;;;;;5008937;28;20644;-76
2022/01/01 06:49:51;;;;;;;28.90;14.77;;;12.50;99.90;;;;;;5002450;28;20232;-77
2022/01/01 06:52:16;;;;;;;26.13;13.80;;;12.50;99.90;;;;;;4987277;28;20621;-76
2022/01/01 06:54:44;;;;;;;29.40;15.00;;;12.30;99.90;;;;;;4992274;28;20658;-76
2022/01/01 06:57:12;;;;;;;30.57;14.63;;;12.50;99.90;;;;;;5008986;28;20311;-76
2022/01/01 06:59:41;;;;;;;24.67;14.83;;;12.50;99.90;;;;;;5011058;28;20644;-77
2022/01/01 07:02:07;;;;;;;24.20;14.40;;;12.30;99.90;;;;;;4988826;28;20987;-77
2022/01/01 07:04:32;;;;;;;26.43;14.47;;;12.60;99.90;;;;;;4989296;28;20620;-76
2022/01/01 07:06:58;;;;;;;22.90;13.00;;;12.60;99.90;;;;;;5009413;28;20229;-76
2022/01/01 07:09:24;;;;;;;24.03;13.17;;;12.60;99.90;;;;;;4994462;28;20221;-76
2022/01/01 07:11:50;;;;;;;23.53;14.10;;;12.50;99.90;;;;;;4997705;28;20182;-76
2022/01/01 07:14:16;;;;;;;25.87;14.03;;;12.50;99.90;;;;;;5009902;28;20192;-76
2022/01/01 07:16:42;;;;;;;22.53;13.97;;;12.50;99.90;;;;;;5012936;28;20636;-77
2022/01/01 07:19:07;;;;;;;24.10;14.10;;;12.60;99.90;;;;;;5011810;28;20273;-76
2022/01/01 07:21:33;;;;;;;27.47;13.57;;;12.50;99.90;;;;;;4995142;28;20189;-76
2022/01/01 07:23:59;;;;;;;25.00;13.87;;;12.40;99.90;;;;;;4992834;28;20197;-76
2022/01/01 07:26:25;;;;;;;22.90;12.30;;;12.60;99.90;;;;;;5010810;28;20233;-75
2022/01/01 07:28:50;;;;;;;25.70;13.10;;;12.50;99.90;;;;;;5011541;28;20647;-76
2022/01/01 07:31:18;;;;;;;26.07;14.30;;;12.50;99.90;;;;;;5011115;28;20232;-77
2022/01/01 07:33:44;;;;;;;24.40;13.83;;;12.50;99.90;;;;;;4996022;28;20189;-76
2022/01/01 07:36:10;;;;;;;27.13;13.73;;;12.40;99.90;;;;;;5014043;28;20639;-76
2022/01/01 07:38:35;;;;;;;21.50;13.33;;;12.50;99.90;;;;;;5013754;28;20269;-76
2022/01/01 07:41:01;;;;;;;24.40;12.70;;;12.60;99.90;;;;;;4999329;28;20185;-77
2022/01/01 07:43:29;;;;;;;24.30;14.30;;;12.50;99.90;;;;;;4998073;28;20366;-76
2022/01/01 07:45:55;;;;;;;27.70;13.13;;;12.60;99.90;;;;;;5008046;28;20276;-77
2022/01/01 07:48:20;;;;;;;29.17;14.33;;;12.50;99.90;;;;;;4994947;28;20659;-76
2022/01/01 07:50:46;;;;;;;28.80;14.33;;;12.60;99.90;;;;;;4994947;28;20186;-78
2022/01/01 07:53:12;;;;;;;23.83;13.67;;;12.60;99.90;;;;;;4996244;28;20193;-78
2022/01/01 07:55:38;;;;;;;26.70;14.53;;;12.50;99.90;;;;;;4996839;28;20661;-77
2022/01/01 07:58:05;;;;;;;28.23;13.40;;;12.40;99.90;;;;;;5014633;28;20253;-77
2022/01/01 08:00:32;;;;;;;26.10;15.03;;;12.60;99.90;;;;;;5006379;28;20281;-77
2022/01/01 08:02:57;;;;;;;28.03;14.63;;;12.50;99.90;;;;;;4993392;28;20639;-77
2022/01/01 08:05:23;;;;;;;26.20;14.70;;;12.40;99.90;;;;;;5011511;28;20605;-77
2022/01/01 08:07:49;;;;;;;28.73;14.77;;;12.70;99.90;;;;;;4995380;28;20580;-77
2022/01/01 08:10:15;;;;;;;25.33;14.53;;;12.60;99.90;;;;;;5011153;28;20278;-77
2022/01/01 08:12:41;;;;;;;27.50;15.10;;;12.50;99.90;;;;;;4998448;28;20193;-76
2022/01/01 08:15:08;;;;;;;29.27;15.40;;;12.40;99.90;;;;;;5012709;28;20621;-77
2022/01/01 08:17:34;;;;;;;30.07;15.40;;;12.70;99.90;;;;;;5011251;28;20648;-76
2022/01/01 08:20:00;;;;;;;29.40;16.23;;;12.50;99.90;;;;;;4996057;28;21246;-78
2022/01/01 08:22:26;;;;;;;30.50;15.30;;;12.50;99.90;;;;;;5001193;28;20644;-77
2022/01/01 08:24:54;;;;;;;31.57;16.60;;;12.60;99.90;;;;;;5001292;28;20625;-77
2022/01/01 08:27:20;;;;;;;32.00;15.73;;;12.40;99.90;;;;;;5011229;28;20208;-77
2022/01/01 08:29:45;;;;;;;28.43;16.40;;;12.50;99.90;;;;;;4994708;28;20652;-78
2022/01/01 08:32:11;;;;;;;29.33;16.90;;;12.50;99.90;;;;;;5001807;28;20205;-78
2022/01/01 08:34:37;;;;;;;28.27;16.63;;;12.60;99.90;;;;;;5001629;28;20280;-77
2022/01/01 08:37:03;;;;;;;29.20;16.63;;;12.60;99.90;;;;;;4996655;28;20210;-78
2022/01/01 08:39:29;;;;;;;26.00;15.43;;;12.60;99.90;;;;;;4991951;28;20629;-78
2022/01/01 08:42:06;;;;;;;29.57;15.50;;;12.70;99.90;;;;;;4995486;28;20648;-79
2022/01/01 08:44:32;;;;;;;28.37;15.10;;;12.70;99.90;;;;;;4993264;28;20719;-78
2022/01/01 08:47:01;;;;;;;28.37;15.67;;;12.60;99.90;;;;;;5010377;28;20699;-78
2022/01/01 08:50:12;;;;;;;32.57;15.37;;;12.60;99.90;;;;;;5009808;28;20325;-78
2022/01/01 08:52:55;;;;;;;32.97;16.03;;;12.70;99.90;;;;;;4974585;28;20719;-78
2022/01/01 08:55:29;;;;;;;27.80;16.17;;;12.60;99.90;;;;;;5015445;28;20635;-76
2022/01/01 08:57:55;;;;;;;32.63;15.40;;;12.60;99.90;;;;;;4986401;28;20674;-76
2022/01/01 09:00:21;;;;;;;32.23;15.50;;;12.70;99.90;;;;;;4998573;28;20624;-77
2022/01/01 09:02:47;;;;;;;29.83;15.37;;;12.60;99.90;;;;;;5003390;28;21099;-77
2022/01/01 09:05:13;;;;;;;35.43;16.73;;;12.60;99.90;;;;;;4986544;28;20701;-78
2022/01/01 09:07:38;;;;;;;31.93;17.40;;;12.60;99.90;;;;;;4982964;28;20680;-78
2022/01/01 09:10:05;;;;;;;32.10;17.07;;;12.60;99.90;;;;;;5001377;28;20611;-78
2022/01/01 09:12:31;;;;;;;30.07;15.87;;;12.70;99.90;;;;;;5001133;28;20231;-78
2022/01/01 09:14:57;;;;;;;26.80;15.83;;;12.70;99.90;;;;;;4980892;28;21063;-78
2022/01/01 09:17:23;;;;;;;29.33;16.73;;;12.70;99.90;;;;;;5003800;28;20602;-79
2022/01/01 09:19:49;;;;;;;29.83;16.13;;;12.80;99.90;;;;;;4998954;28;20625;-78
2022/01/01 09:22:15;;;;;;;32.07;16.70;;;12.70;99.90;;;;;;5002127;28;20651;-76
2022/01/01 09:24:40;;;;;;;28.47;16.30;;;12.70;99.90;;;;;;5004899;28;20962;-76
2022/01/01 09:27:06;;;;;;;28.07;17.03;;;12.80;99.90;;;;;;5005393;28;20715;-77
2022/01/01 09:29:32;;;;;;;33.63;18.30;;;12.80;99.90;;;;;;5004992;28;20221;-78
2022/01/01 09:31:58;;;;;;;36.63;20.30;;;12.80;99.90;;;;;;5004105;28;20616;-76
2022/01/01 09:34:24;;;;;;;42.63;20.30;;;12.80;99.90;;;;;;5004281;28;20185;-77
2022/01/01 09:36:50;;;;;;;37.67;20.33;;;12.80;99.90;;;;;;4999727;28;20632;-76
2022/01/01 09:39:16;;;;;;;36.87;20.93;;;12.80;99.90;;;;;;5003477;28;20287;-76
2022/01/01 09:41:43;;;;;;;35.07;20.73;;;12.80;99.90;;;;;;5000796;28;20196;-76
2022/01/01 09:44:14;;;;;;;35.07;20.90;;;12.80;99.90;;;;;;4988320;28;20621;-75
2022/01/01 09:46:42;;;;;;;38.80;22.50;;;12.80;99.90;;;;;;4996142;28;20649;-75
2022/01/01 09:49:08;;;;;;;44.43;23.70;;;12.80;99.90;;;;;;4996663;28;20641;-75
2022/01/01 09:51:35;;;;;;;40.50;24.77;;;12.80;99.90;;;;;;4999969;28;21035;-75
2022/01/01 09:54:01;;;;;;;47.00;25.13;;;12.80;99.90;;;;;;5001343;28;20182;-75
2022/01/01 09:56:26;;;;;;;46.57;25.80;;;12.80;99.90;;;;;;4994411;28;20729;-75
2022/01/01 09:58:52;;;;;;;49.67;27.00;;;12.80;99.90;;;;;;4990591;28;20249;-75
2022/01/01 10:01:17;;;;;;;58.20;27.20;;;12.80;99.90;;;;;;4995715;28;20265;-75
2022/01/01 10:03:45;;;;;;;46.00;26.20;;;12.80;99.90;;;;;;4997502;28;20191;-77
2022/01/01 10:06:12;;;;;;;48.63;26.03;;;12.80;99.90;;;;;;4999049;28;20201;-75
2022/01/01 10:08:40;;;;;;;46.37;27.63;;;12.80;99.90;;;;;;4993742;28;20725;-74
2022/01/01 10:11:06;;;;;;;51.63;27.03;;;12.80;99.90;;;;;;4981852;28;21209;-76
2022/01/01 10:13:37;;;;;;;49.53;28.17;;;12.80;99.90;;;;;;5008074;28;20874;-77
2022/01/01 10:16:05;;;;;;;55.60;29.80;;;12.90;99.90;;;;;;5004355;28;20788;-76
2022/01/01 10:18:33;;;;;;;53.07;30.83;;;12.90;99.90;;;;;;5013158;28;20644;-77
2022/01/01 10:21:02;;;;;;;54.07;30.20;;;12.80;99.90;;;;;;4990139;28;20613;-79
2022/01/01 10:23:30;;;;;;;53.20;30.23;;;12.90;99.90;;;;;;5003749;28;20670;-77
2022/01/01 10:29:15;;;;;;;54.83;33.17;;;12.90;99.90;;;;;;4999021;28;21325;-76
2022/01/01 10:31:54;;;;;;;55.73;32.17;;;12.90;99.90;;;;;;4991852;28;20612;-76
2022/01/01 10:34:21;;;;;;;58.67;35.40;;;12.90;99.90;;;;;;4998255;28;20724;-76
2022/01/01 10:36:48;;;;;;;57.53;33.70;;;12.90;99.90;;;;;;4981292;28;20664;-76
2022/01/01 10:39:18;;;;;;;62.80;34.90;;;12.90;99.90;;;;;;4994020;28;21390;-76
2022/01/01 10:41:46;;;;;;;56.73;33.37;;;12.90;99.90;;;;;;4982166;28;20659;-78
2022/01/01 10:44:12;;;;;;;58.83;36.07;;;12.90;99.90;;;;;;4986497;28;20644;-76
2022/01/01 10:46:38;;;;;;;63.97;36.50;;;12.80;99.90;;;;;;4998824;28;20667;-77
2022/01/01 10:52:19;;;;;;;61.00;34.20;;;12.90;99.90;;;;;;4989342;28;20773;-76
2022/01/01 10:54:59;;;;;;;54.10;33.87;;;12.90;99.90;;;;;;5003740;28;20620;-76
2022/01/01 10:57:33;;;;;;;59.80;35.17;;;12.80;99.90;;;;;;4986824;28;20671;-77
2022/01/01 11:00:23;;;;;;;53.27;32.90;;;12.90;99.90;;;;;;5003134;28;20642;-77
2022/01/01 11:02:56;;;;;;;53.27;31.97;;;12.90;99.90;;;;;;5005085;28;20569;-77
2022/01/01 11:05:29;;;;;;;60.20;34.73;;;12.90;99.90;;;;;;5005239;28;20650;-76
2022/01/01 11:07:55;;;;;;;55.87;32.87;;;12.90;99.90;;;;;;5004233;28;20652;-76
2022/01/01 11:10:22;;;;;;;54.93;31.90;;;13.00;99.90;;;;;;5006016;28;21006;-77
2022/01/01 11:12:48;;;;;;;53.63;31.60;;;12.90;99.90;;;;;;5005901;28;20683;-76
2022/01/01 11:15:14;;;;;;;50.57;31.40;;;12.80;99.90;;;;;;5010675;28;20655;-76
2022/01/01 11:17:41;;;;;;;55.73;30.93;;;12.80;99.90;;;;;;5005236;28;20707;-77
2022/01/01 11:20:07;;;;;;;51.03;30.03;;;12.80;99.90;;;;;;5004932;28;20635;-76
2022/01/01 11:22:33;;;;;;;53.77;28.70;;;12.90;99.90;;;;;;4990517;28;21511;-76
2022/01/01 11:25:00;;;;;;;42.60;27.10;;;12.90;99.90;;;;;;4993731;28;20662;-76
2022/01/01 11:27:27;;;;;;;44.80;26.10;;;12.90;99.90;;;;;;4993513;28;20603;-76
2022/01/01 11:30:13;;;;;;;39.83;26.20;;;12.90;99.90;;;;;;5004904;28;20643;-77
2022/01/01 11:32:58;;;;;;;45.33;27.00;;;13.00;99.90;;;;;;5005555;28;20977;-76
2022/01/01 11:35:29;;;;;;;39.33;25.20;;;13.00;99.90;;;;;;4989322;28;20709;-77
2022/01/01 11:38:10;;;;;;;44.90;24.67;;;13.00;99.90;;;;;;5004156;28;20672;-77
2022/01/01 11:40:54;;;;;;;41.37;25.73;;;13.00;99.90;;;;;;5004781;28;20628;-77
2022/01/01 11:43:48;;;;;;;47.17;24.80;;;13.00;99.90;;;;;;5004162;28;20651;-77
2022/01/01 11:46:29;;;;;;;36.10;24.50;;;13.00;99.90;;;;;;4995570;28;20687;-77
2022/01/01 11:48:59;;;;;;;43.03;24.37;;;13.00;99.90;;;;;;5008682;28;20624;-76
2022/01/01 11:51:42;;;;;;;36.80;22.80;;;13.10;99.90;;;;;;4988108;28;20608;-77
2022/01/01 11:54:30;;;;;;;32.53;21.83;;;13.10;99.90;;;;;;5004039;28;20607;-77
2022/01/01 11:57:05;;;;;;;43.30;22.60;;;13.10;99.90;;;;;;5004525;28;20714;-77
2022/01/01 11:59:37;;;;;;;35.43;23.30;;;13.20;99.90;;;;;;4999337;28;20632;-77
2022/01/01 12:02:23;;;;;;;48.07;23.77;;;13.20;99.90;;;;;;5004312;28;20642;-77
2022/01/01 12:04:55;;;;;;;40.30;23.93;;;13.20;99.90;;;;;;4969709;28;20714;-77
2022/01/01 12:07:20;;;;;;;39.73;23.50;;;13.20;99.90;;;;;;4992265;28;21337;-77
2022/01/01 12:09:58;;;;;;;34.60;21.30;;;13.20;99.90;;;;;;5002366;28;21226;-78
2022/01/01 12:12:49;;;;;;;39.90;23.03;;;13.30;99.90;;;;;;5000270;28;20276;-76
2022/01/01 12:15:27;;;;;;;32.60;23.00;;;13.30;99.90;;;;;;5000578;28;20605;-75
2022/01/01 12:18:22;;;;;;;32.40;21.63;;;13.30;99.90;;;;;;5002269;28;20663;-77
2022/01/01 12:21:03;;;;;;;34.83;22.03;;;13.30;99.90;;;;;;4983604;28;20731;-76
2022/01/01 12:23:38;;;;;;;39.43;22.27;;;13.30;99.90;;;;;;4983684;28;21208;-77
2022/01/01 12:26:12;;;;;;;34.33;21.33;;;13.30;99.90;;;;;;5002449;28;20678;-78
2022/01/01 12:28:38;;;;;;;31.67;21.33;;;13.30;99.90;;;;;;5000738;28;21176;-76
2022/01/01 12:31:12;;;;;;;31.43;20.40;;;13.30;99.90;;;;;;5000469;28;21206;-77
2022/01/01 12:33:39;;;;;;;30.83;20.10;;;13.30;99.90;;;;;;4986807;28;20633;-78
2022/01/01 12:36:24;;;;;;;31.07;19.40;;;13.30;99.90;;;;;;4985358;28;20684;-78
2022/01/01 12:38:53;;;;;;;29.80;18.80;;;13.30;99.90;;;;;;5002145;28;21055;-77
2022/01/01 12:41:37;;;;;;;33.17;18.87;;;13.30;99.90;;;;;;5000325;28;20612;-77
2022/01/01 12:44:20;;;;;;;32.23;20.50;;;13.30;99.90;;;;;;4991504;28;20650;-79
2022/01/01 12:46:49;;;;;;;26.77;18.30;;;13.40;99.90;;;;;;5000199;28;20726;-79
2022/01/01 12:49:15;;;;;;;34.20;20.30;;;13.40;99.90;;;;;;5000163;28;20675;-78
2022/01/01 12:51:42;;;;;;;30.70;20.07;;;13.40;99.90;;;;;;5002254;28;20629;-79
2022/01/01 12:54:15;;;;;;;32.93;21.23;;;13.40;99.90;;;;;;5004695;28;20632;-77
2022/01/01 12:56:44;;;;;;;32.33;20.33;;;13.40;99.90;;;;;;5002154;28;20667;-78